sensor_id;sensor_type;location;lat;lon;timestamp;pressure;altitude;pressure_sealevel;temperature;humidity
56052;BME280;41919;42.648;23.384;2023-03-21T00:02:21;94418.22;;;12.41;49.72
56052;BME280;41919;42.648;23.384;2023-03-21T00:04:49;94414.97;;;12.39;49.79
56052;BME280;41919;42.648;23.384;2023-03-21T00:07:14;94407.78;;;12.34;49.50
56052;BME280;41919;42.648;23.384;2023-03-21T00:09:41;94411.41;;;12.33;49.69
56052;BME280;41919;42.648;23.384;2023-03-21T00:12:06;94402.25;;;12.24;50.09
56052;BME280;41919;42.648;23.384;2023-03-21T00:14:34;94354.06;;;11.81;49.86
56052;BME280;41919;42.648;23.384;2023-03-21T00:17:02;94398.16;;;12.09;50.58
56052;BME280;41919;42.648;23.384;2023-03-21T00:19:28;94410.16;;;12.17;50.17
56052;BME280;41919;42.648;23.384;2023-03-21T00:21:53;94408.34;;;12.18;50.41
56052;BME280;41919;42.648;23.384;2023-03-21T00:24:20;94389.41;;;12.15;50.23
56052;BME280;41919;42.648;23.384;2023-03-21T00:26:47;94410.09;;;12.42;50.29
56052;BME280;41919;42.648;23.384;2023-03-21T00:29:12;94405.16;;;12.52;49.56
56052;BME280;41919;42.648;23.384;2023-03-21T00:31:38;94359.00;;;12.33;48.99
56052;BME280;41919;42.648;23.384;2023-03-21T00:34:03;94410.16;;;12.72;48.89
56052;BME280;41919;42.648;23.384;2023-03-21T00:36:29;94396.91;;;12.67;48.77
56052;BME280;41919;42.648;23.384;2023-03-21T00:38:54;94365.44;;;12.37;48.69
56052;BME280;41919;42.648;23.384;2023-03-21T00:41:20;94402.09;;;12.55;48.80
56052;BME280;41919;42.648;23.384;2023-03-21T00:43:45;94363.22;;;12.34;48.83
56052;BME280;41919;42.648;23.384;2023-03-21T00:46:11;94423.00;;;12.62;48.95
56052;BME280;41919;42.648;23.384;2023-03-21T00:48:36;94366.50;;;12.11;49.11
56052;BME280;41919;42.648;23.384;2023-03-21T00:51:02;94354.91;;;12.00;49.36
56052;BME280;41919;42.648;23.384;2023-03-21T00:53:36;94407.34;;;12.37;49.27
56052;BME280;41919;42.648;23.384;2023-03-21T00:56:02;94418.13;;;12.47;49.49
56052;BME280;41919;42.648;23.384;2023-03-21T00:58:27;94350.88;;;12.04;49.93
56052;BME280;41919;42.648;23.384;2023-03-21T01:00:53;94311.09;;;11.89;49.49
56052;BME280;41919;42.648;23.384;2023-03-21T01:03:18;94405.59;;;12.49;49.79
56052;BME280;41919;42.648;23.384;2023-03-21T01:05:46;94330.94;;;12.03;49.73
56052;BME280;41919;42.648;23.384;2023-03-21T01:08:33;94396.06;;;12.36;50.11
56052;BME280;41919;42.648;23.384;2023-03-21T01:11:08;94333.16;;;12.00;50.34
56052;BME280;41919;42.648;23.384;2023-03-21T01:13:34;94345.63;;;12.04;50.10
56052;BME280;41919;42.648;23.384;2023-03-21T01:16:00;94321.44;;;11.84;50.51
56052;BME280;41919;42.648;23.384;2023-03-21T01:18:28;94388.13;;;12.25;50.48
56052;BME280;41919;42.648;23.384;2023-03-21T01:20:55;94327.38;;;11.72;51.13
56052;BME280;41919;42.648;23.384;2023-03-21T01:23:22;94310.03;;;11.53;51.31
56052;BME280;41919;42.648;23.384;2023-03-21T01:25:49;94378.94;;;11.97;51.22
56052;BME280;41919;42.648;23.384;2023-03-21T01:28:15;94398.00;;;12.04;51.50
56052;BME280;41919;42.648;23.384;2023-03-21T01:30:45;94398.59;;;12.06;51.25
56052;BME280;41919;42.648;23.384;2023-03-21T01:33:10;94397.56;;;12.07;51.16
56052;BME280;41919;42.648;23.384;2023-03-21T01:35:36;94326.03;;;11.63;51.03
56052;BME280;41919;42.648;23.384;2023-03-21T01:38:02;94399.31;;;12.13;51.18
56052;BME280;41919;42.648;23.384;2023-03-21T01:40:27;94385.25;;;12.08;51.29
56052;BME280;41919;42.648;23.384;2023-03-21T01:42:54;94337.94;;;11.84;51.18
56052;BME280;41919;42.648;23.384;2023-03-21T01:48:23;94333.63;;;11.71;50.76
56052;BME280;41919;42.648;23.384;2023-03-21T01:50:50;94398.72;;;12.11;50.84
56052;BME280;41919;42.648;23.384;2023-03-21T01:53:18;94324.66;;;11.61;51.09
56052;BME280;41919;42.648;23.384;2023-03-21T01:55:46;94381.19;;;11.87;51.45
56052;BME280;41919;42.648;23.384;2023-03-21T01:58:13;94331.22;;;11.45;51.43
56052;BME280;41919;42.648;23.384;2023-03-21T02:00:45;94321.63;;;11.38;52.19
56052;BME280;41919;42.648;23.384;2023-03-21T02:03:12;94366.47;;;11.67;51.85
56052;BME280;41919;42.648;23.384;2023-03-21T02:05:58;94393.94;;;11.83;51.73
56052;BME280;41919;42.648;23.384;2023-03-21T02:08:30;94328.75;;;11.31;51.98
56052;BME280;41919;42.648;23.384;2023-03-21T02:10:56;94322.06;;;11.35;51.56
56052;BME280;41919;42.648;23.384;2023-03-21T02:13:22;94383.22;;;11.85;51.55
56052;BME280;41919;42.648;23.384;2023-03-21T02:16:01;94378.66;;;11.80;51.54
56052;BME280;41919;42.648;23.384;2023-03-21T02:18:37;94394.78;;;11.77;51.85
56052;BME280;41919;42.648;23.384;2023-03-21T02:24:24;94297.50;;;11.11;51.70
56052;BME280;41919;42.648;23.384;2023-03-21T02:27:00;94387.16;;;11.75;51.52
56052;BME280;41919;42.648;23.384;2023-03-21T02:45:22;94370.22;;;11.78;50.33
56052;BME280;41919;42.648;23.384;2023-03-21T02:47:59;94366.81;;;11.77;50.48
56052;BME280;41919;42.648;23.384;2023-03-21T02:52:55;94378.81;;;11.85;50.14
56052;BME280;41919;42.648;23.384;2023-03-21T02:55:25;94376.84;;;11.81;50.39
56052;BME280;41919;42.648;23.384;2023-03-21T02:57:55;94365.31;;;11.63;50.06
56052;BME280;41919;42.648;23.384;2023-03-21T03:00:25;94379.34;;;11.69;49.76
56052;BME280;41919;42.648;23.384;2023-03-21T03:02:52;94390.91;;;11.61;49.82
56052;BME280;41919;42.648;23.384;2023-03-21T03:05:22;94335.06;;;11.17;50.07
56052;BME280;41919;42.648;23.384;2023-03-21T03:08:04;94387.78;;;11.46;50.75
56052;BME280;41919;42.648;23.384;2023-03-21T03:16:33;94394.88;;;11.38;51.02
56052;BME280;41919;42.648;23.384;2023-03-21T03:19:03;94389.06;;;11.36;50.98
56052;BME280;41919;42.648;23.384;2023-03-21T03:21:41;94296.50;;;10.81;51.05
56052;BME280;41919;42.648;23.384;2023-03-21T03:24:24;94392.13;;;11.33;50.89
56052;BME280;41919;42.648;23.384;2023-03-21T03:27:05;94362.09;;;11.11;51.39
56052;BME280;41919;42.648;23.384;2023-03-21T03:29:33;94388.56;;;11.21;51.43
56052;BME280;41919;42.648;23.384;2023-03-21T03:32:12;94334.06;;;10.86;51.71
56052;BME280;41919;42.648;23.384;2023-03-21T03:34:43;94378.56;;;11.11;52.01
56052;BME280;41919;42.648;23.384;2023-03-21T03:37:16;94330.00;;;10.58;52.31
56052;BME280;41919;42.648;23.384;2023-03-21T03:39:47;94357.84;;;10.78;52.11
56052;BME280;41919;42.648;23.384;2023-03-21T03:42:18;94380.78;;;10.76;53.27
56052;BME280;41919;42.648;23.384;2023-03-21T03:44:44;94325.84;;;10.51;53.28
56052;BME280;41919;42.648;23.384;2023-03-21T03:52:36;94386.22;;;10.74;53.75
56052;BME280;41919;42.648;23.384;2023-03-21T03:55:04;94333.88;;;10.49;53.89
56052;BME280;41919;42.648;23.384;2023-03-21T03:57:30;94341.66;;;10.63;53.71
56052;BME280;41919;42.648;23.384;2023-03-21T03:59:57;94315.81;;;10.41;54.27
56052;BME280;41919;42.648;23.384;2023-03-21T04:02:22;94304.16;;;10.37;54.11
56052;BME280;41919;42.648;23.384;2023-03-21T04:04:48;94320.63;;;10.44;54.27
56052;BME280;41919;42.648;23.384;2023-03-21T04:07:18;94384.75;;;10.85;54.05
56052;BME280;41919;42.648;23.384;2023-03-21T04:09:43;94313.44;;;10.39;54.62
56052;BME280;41919;42.648;23.384;2023-03-21T04:12:10;94303.59;;;10.35;54.12
56052;BME280;41919;42.648;23.384;2023-03-21T04:14:36;94288.97;;;10.20;54.30
56052;BME280;41919;42.648;23.384;2023-03-21T04:17:02;94313.19;;;10.41;54.57
56052;BME280;41919;42.648;23.384;2023-03-21T04:19:28;94341.13;;;10.47;54.36
56052;BME280;41919;42.648;23.384;2023-03-21T04:21:54;94373.00;;;10.63;54.21
56052;BME280;41919;42.648;23.384;2023-03-21T04:24:19;94312.44;;;10.34;53.75
56052;BME280;41919;42.648;23.384;2023-03-21T04:26:45;94307.81;;;10.36;53.42
56052;BME280;41919;42.648;23.384;2023-03-21T04:29:10;94382.72;;;10.87;53.46
56052;BME280;41919;42.648;23.384;2023-03-21T04:31:36;94289.94;;;10.33;52.93
56052;BME280;41919;42.648;23.384;2023-03-21T04:34:03;94381.91;;;10.87;52.99
56052;BME280;41919;42.648;23.384;2023-03-21T04:36:30;94303.06;;;10.06;54.14
56052;BME280;41919;42.648;23.384;2023-03-21T04:39:03;94305.19;;;9.51;56.52
56052;BME280;41919;42.648;23.384;2023-03-21T04:41:33;94394.91;;;9.63;57.06
56052;BME280;41919;42.648;23.384;2023-03-21T04:43:58;94245.88;;;8.66;57.29
56052;BME280;41919;42.648;23.384;2023-03-21T04:46:23;94371.44;;;9.50;57.64
56052;BME280;41919;42.648;23.384;2023-03-21T04:48:49;94363.78;;;9.61;57.23
56052;BME280;41919;42.648;23.384;2023-03-21T04:51:15;94370.19;;;9.79;57.36
56052;BME280;41919;42.648;23.384;2023-03-21T04:53:41;94297.41;;;9.31;57.13
56052;BME280;41919;42.648;23.384;2023-03-21T04:56:10;94323.63;;;9.62;56.98
56052;BME280;41919;42.648;23.384;2023-03-21T04:58:35;94361.13;;;10.01;56.35
56052;BME280;41919;42.648;23.384;2023-03-21T05:01:01;94321.97;;;9.95;56.11
56052;BME280;41919;42.648;23.384;2023-03-21T05:03:26;94391.38;;;10.43;55.86
56052;BME280;41919;42.648;23.384;2023-03-21T05:05:53;94213.13;;;9.37;55.50
56052;BME280;41919;42.648;23.384;2023-03-21T05:08:19;94363.22;;;10.51;55.06
56052;BME280;41919;42.648;23.384;2023-03-21T05:10:45;94264.13;;;9.98;54.65
56052;BME280;41919;42.648;23.384;2023-03-21T05:13:10;94343.31;;;10.50;54.25
56052;BME280;41919;42.648;23.384;2023-03-21T05:15:36;94320.31;;;10.20;53.89
56052;BME280;41919;42.648;23.384;2023-03-21T05:18:01;94401.03;;;10.42;54.07
56052;BME280;41919;42.648;23.384;2023-03-21T05:20:35;94386.06;;;9.77;56.04
56052;BME280;41919;42.648;23.384;2023-03-21T05:23:00;94382.84;;;9.49;56.96
56052;BME280;41919;42.648;23.384;2023-03-21T05:25:25;94401.72;;;9.51;57.84
56052;BME280;41919;42.648;23.384;2023-03-21T05:27:59;94317.44;;;8.90;57.47
56052;BME280;41919;42.648;23.384;2023-03-21T05:30:27;94321.66;;;9.05;57.53
56052;BME280;41919;42.648;23.384;2023-03-21T05:32:52;94216.59;;;8.44;57.22
56052;BME280;41919;42.648;23.384;2023-03-21T05:35:18;94394.28;;;9.94;56.91
56052;BME280;41919;42.648;23.384;2023-03-21T05:37:43;94381.38;;;10.06;56.61
56052;BME280;41919;42.648;23.384;2023-03-21T05:40:09;94383.56;;;10.36;55.57
56052;BME280;41919;42.648;23.384;2023-03-21T05:42:35;94375.63;;;10.56;55.45
56052;BME280;41919;42.648;23.384;2023-03-21T05:45:01;94337.66;;;10.53;54.82
56052;BME280;41919;42.648;23.384;2023-03-21T05:47:26;94400.28;;;11.12;53.69
56052;BME280;41919;42.648;23.384;2023-03-21T05:49:52;94399.78;;;11.28;52.98
56052;BME280;41919;42.648;23.384;2023-03-21T05:52:17;94335.03;;;10.92;52.94
56052;BME280;41919;42.648;23.384;2023-03-21T05:54:43;94388.22;;;11.43;52.71
56052;BME280;41919;42.648;23.384;2023-03-21T05:57:08;94378.28;;;11.51;53.65
56052;BME280;41919;42.648;23.384;2023-03-21T05:59:34;94388.84;;;11.88;53.52
56052;BME280;41919;42.648;23.384;2023-03-21T06:02:00;94307.84;;;11.50;53.56
56052;BME280;41919;42.648;23.384;2023-03-21T06:04:25;94333.09;;;11.63;58.64
56052;BME280;41919;42.648;23.384;2023-03-21T06:06:52;94306.41;;;11.54;56.93
56052;BME280;41919;42.648;23.384;2023-03-21T06:09:19;94381.19;;;11.87;56.22
56052;BME280;41919;42.648;23.384;2023-03-21T06:11:47;94308.16;;;11.10;56.39
56052;BME280;41919;42.648;23.384;2023-03-21T06:14:13;94367.75;;;11.33;57.32
56052;BME280;41919;42.648;23.384;2023-03-21T06:16:39;94299.13;;;10.81;55.21
56052;BME280;41919;42.648;23.384;2023-03-21T06:19:04;94360.00;;;11.19;54.39
56052;BME280;41919;42.648;23.384;2023-03-21T06:21:29;94280.00;;;10.48;55.32
56052;BME280;41919;42.648;23.384;2023-03-21T06:23:55;94379.44;;;10.98;55.46
56052;BME280;41919;42.648;23.384;2023-03-21T06:26:20;94372.38;;;11.06;55.97
56052;BME280;41919;42.648;23.384;2023-03-21T06:28:51;94305.78;;;10.76;55.78
56052;BME280;41919;42.648;23.384;2023-03-21T06:31:17;94297.75;;;10.78;56.16
56052;BME280;41919;42.648;23.384;2023-03-21T06:33:47;94293.00;;;10.93;57.52
56052;BME280;41919;42.648;23.384;2023-03-21T06:36:12;94306.59;;;11.02;54.73
56052;BME280;41919;42.648;23.384;2023-03-21T06:38:38;94353.66;;;11.59;55.41
56052;BME280;41919;42.648;23.384;2023-03-21T06:41:04;94355.75;;;11.75;56.57
56052;BME280;41919;42.648;23.384;2023-03-21T06:43:30;94363.44;;;11.89;53.33
56052;BME280;41919;42.648;23.384;2023-03-21T06:45:57;94301.84;;;11.43;53.84
56052;BME280;41919;42.648;23.384;2023-03-21T06:48:22;94364.84;;;12.16;53.42
56052;BME280;41919;42.648;23.384;2023-03-21T06:50:49;94367.69;;;12.33;55.04
56052;BME280;41919;42.648;23.384;2023-03-21T06:53:15;94344.84;;;12.71;53.35
56052;BME280;41919;42.648;23.384;2023-03-21T06:55:41;94381.97;;;13.28;51.03
56052;BME280;41919;42.648;23.384;2023-03-21T06:58:06;94376.72;;;13.59;49.50
56052;BME280;41919;42.648;23.384;2023-03-21T07:00:32;94319.88;;;13.76;48.18
56052;BME280;41919;42.648;23.384;2023-03-21T07:02:57;94377.91;;;14.74;46.79
56052;BME280;41919;42.648;23.384;2023-03-21T07:05:23;94354.59;;;15.23;45.32
56052;BME280;41919;42.648;23.384;2023-03-21T07:07:48;94307.38;;;15.84;43.19
56052;BME280;41919;42.648;23.384;2023-03-21T07:10:14;94356.66;;;17.11;40.44
56052;BME280;41919;42.648;23.384;2023-03-21T07:12:40;94323.66;;;17.78;38.97
56052;BME280;41919;42.648;23.384;2023-03-21T07:15:06;94323.41;;;17.80;37.61
56052;BME280;41919;42.648;23.384;2023-03-21T07:17:32;94321.94;;;17.57;38.45
56052;BME280;41919;42.648;23.384;2023-03-21T07:19:58;94366.88;;;17.94;36.84
56052;BME280;41919;42.648;23.384;2023-03-21T07:22:24;94381.81;;;17.78;36.93
56052;BME280;41919;42.648;23.384;2023-03-21T07:24:49;94384.88;;;17.65;37.38
56052;BME280;41919;42.648;23.384;2023-03-21T07:27:16;94340.13;;;17.21;37.46
56052;BME280;41919;42.648;23.384;2023-03-21T07:29:41;94382.06;;;17.44;37.43
56052;BME280;41919;42.648;23.384;2023-03-21T07:32:08;94343.09;;;17.02;37.89
56052;BME280;41919;42.648;23.384;2023-03-21T07:34:33;94313.06;;;16.59;38.27
56052;BME280;41919;42.648;23.384;2023-03-21T07:36:59;94382.34;;;16.94;39.44
56052;BME280;41919;42.648;23.384;2023-03-21T07:39:26;94389.22;;;16.95;39.60
56052;BME280;41919;42.648;23.384;2023-03-21T07:41:51;94375.03;;;16.79;39.74
56052;BME280;41919;42.648;23.384;2023-03-21T07:44:20;94298.91;;;16.43;39.39
56052;BME280;41919;42.648;23.384;2023-03-21T07:46:46;94371.28;;;16.97;39.31
56052;BME280;41919;42.648;23.384;2023-03-21T07:49:11;94372.66;;;16.99;39.36
56052;BME280;41919;42.648;23.384;2023-03-21T07:51:36;94305.84;;;16.50;39.52
56052;BME280;41919;42.648;23.384;2023-03-21T07:54:02;94379.72;;;16.94;39.55
56052;BME280;41919;42.648;23.384;2023-03-21T07:56:28;94387.09;;;16.92;39.92
56052;BME280;41919;42.648;23.384;2023-03-21T07:58:53;94381.84;;;16.97;40.36
56052;BME280;41919;42.648;23.384;2023-03-21T08:01:18;94319.50;;;16.46;40.85
56052;BME280;41919;42.648;23.384;2023-03-21T08:03:46;94380.50;;;16.94;40.33
56052;BME280;41919;42.648;23.384;2023-03-21T08:06:12;94362.25;;;16.93;40.04
56052;BME280;41919;42.648;23.384;2023-03-21T08:08:38;94320.91;;;16.54;40.24
56052;BME280;41919;42.648;23.384;2023-03-21T08:11:04;94307.97;;;16.53;40.02
56052;BME280;41919;42.648;23.384;2023-03-21T08:13:29;94342.75;;;16.72;39.90
56052;BME280;41919;42.648;23.384;2023-03-21T08:15:55;94324.03;;;16.73;41.28
56052;BME280;41919;42.648;23.384;2023-03-21T08:18:21;94357.16;;;17.08;39.80
56052;BME280;41919;42.648;23.384;2023-03-21T08:20:53;94313.22;;;16.97;39.59
56052;BME280;41919;42.648;23.384;2023-03-21T08:23:19;94307.69;;;16.98;39.17
56052;BME280;41919;42.648;23.384;2023-03-21T08:25:49;94370.22;;;17.47;38.73
56052;BME280;41919;42.648;23.384;2023-03-21T08:28:16;94299.25;;;16.52;39.32
56052;BME280;41919;42.648;23.384;2023-03-21T08:30:41;94360.38;;;16.88;39.43
56052;BME280;41919;42.648;23.384;2023-03-21T08:33:07;94292.13;;;16.53;39.13
56052;BME280;41919;42.648;23.384;2023-03-21T08:35:33;94355.16;;;17.20;38.69
56052;BME280;41919;42.648;23.384;2023-03-21T08:38:01;94355.09;;;17.42;38.24
56052;BME280;41919;42.648;23.384;2023-03-21T08:40:27;94363.44;;;17.61;37.87
56052;BME280;41919;42.648;23.384;2023-03-21T08:42:52;94327.88;;;17.42;37.63
56052;BME280;41919;42.648;23.384;2023-03-21T08:45:18;94374.06;;;17.12;38.62
56052;BME280;41919;42.648;23.384;2023-03-21T08:47:44;94313.91;;;16.65;38.65
56052;BME280;41919;42.648;23.384;2023-03-21T08:50:11;94296.94;;;16.12;39.72
56052;BME280;41919;42.648;23.384;2023-03-21T08:52:38;94371.69;;;16.22;40.71
56052;BME280;41919;42.648;23.384;2023-03-21T08:55:04;94300.75;;;15.48;41.38
56052;BME280;41919;42.648;23.384;2023-03-21T08:57:29;94309.22;;;15.67;41.26
56052;BME280;41919;42.648;23.384;2023-03-21T08:59:55;94311.44;;;15.92;40.06
56052;BME280;41919;42.648;23.384;2023-03-21T09:02:20;94358.81;;;16.48;39.14
56052;BME280;41919;42.648;23.384;2023-03-21T09:04:46;94290.47;;;15.80;40.39
56052;BME280;41919;42.648;23.384;2023-03-21T09:07:11;94322.75;;;16.10;39.82
56052;BME280;41919;42.648;23.384;2023-03-21T09:09:39;94358.09;;;16.53;39.27
56052;BME280;41919;42.648;23.384;2023-03-21T09:12:05;94305.28;;;16.25;39.58
56052;BME280;41919;42.648;23.384;2023-03-21T09:14:31;94347.97;;;16.44;39.28
56052;BME280;41919;42.648;23.384;2023-03-21T09:16:57;94347.19;;;16.44;39.49
56052;BME280;41919;42.648;23.384;2023-03-21T09:19:23;94325.72;;;15.96;39.94
56052;BME280;41919;42.648;23.384;2023-03-21T09:21:48;94265.56;;;15.54;39.76
56052;BME280;41919;42.648;23.384;2023-03-21T09:24:14;94310.50;;;16.20;39.50
56052;BME280;41919;42.648;23.384;2023-03-21T09:26:40;94288.97;;;16.29;38.74
56052;BME280;41919;42.648;23.384;2023-03-21T09:29:06;94302.31;;;16.66;38.01
56052;BME280;41919;42.648;23.384;2023-03-21T09:31:32;94326.47;;;17.02;37.34
56052;BME280;41919;42.648;23.384;2023-03-21T09:33:57;94161.41;;;16.07;36.79
56052;BME280;41919;42.648;23.384;2023-03-21T09:36:24;94272.72;;;16.59;37.78
56052;BME280;41919;42.648;23.384;2023-03-21T09:38:52;94314.81;;;16.98;37.78
56052;BME280;41919;42.648;23.384;2023-03-21T09:44:16;94270.53;;;17.37;37.78
56052;BME280;41919;42.648;23.384;2023-03-21T09:49:38;94295.50;;;17.89;36.97
56052;BME280;41919;42.648;23.384;2023-03-21T09:52:12;94242.88;;;17.50;37.28
56052;BME280;41919;42.648;23.384;2023-03-21T09:54:42;94248.25;;;17.66;36.80
56052;BME280;41919;42.648;23.384;2023-03-21T09:57:32;94305.63;;;18.08;37.02
56052;BME280;41919;42.648;23.384;2023-03-21T10:00:03;94289.47;;;17.99;37.11
56052;BME280;41919;42.648;23.384;2023-03-21T10:02:37;94226.66;;;17.74;36.83
56052;BME280;41919;42.648;23.384;2023-03-21T10:07:55;94290.38;;;18.25;36.56
56052;BME280;41919;42.648;23.384;2023-03-21T10:10:27;94228.28;;;17.80;36.81
56052;BME280;41919;42.648;23.384;2023-03-21T10:12:55;94208.25;;;17.89;36.93
56052;BME280;41919;42.648;23.384;2023-03-21T10:15:22;94280.19;;;18.59;35.66
56052;BME280;41919;42.648;23.384;2023-03-21T10:17:54;94281.31;;;18.74;35.59
56052;BME280;41919;42.648;23.384;2023-03-21T10:20:25;94262.84;;;18.89;34.90
56052;BME280;41919;42.648;23.384;2023-03-21T10:22:55;94201.59;;;18.75;34.73
56052;BME280;41919;42.648;23.384;2023-03-21T10:25:43;94244.56;;;19.34;33.59
56052;BME280;41919;42.648;23.384;2023-03-21T10:28:20;94261.00;;;19.56;33.70
56052;BME280;41919;42.648;23.384;2023-03-21T10:33:38;94262.56;;;19.78;32.79
56052;BME280;41919;42.648;23.384;2023-03-21T10:36:16;94276.84;;;19.97;32.75
56052;BME280;41919;42.648;23.384;2023-03-21T10:38:47;94230.72;;;19.88;32.22
56052;BME280;41919;42.648;23.384;2023-03-21T10:41:14;94233.41;;;19.83;32.20
56052;BME280;41919;42.648;23.384;2023-03-21T10:43:41;94274.25;;;19.51;31.55
56052;BME280;41919;42.648;23.384;2023-03-21T10:46:12;94256.75;;;19.09;32.10
56052;BME280;41919;42.648;23.384;2023-03-21T10:48:41;94212.41;;;18.38;33.28
56052;BME280;41919;42.648;23.384;2023-03-21T10:51:15;94264.41;;;18.90;32.76
56052;BME280;41919;42.648;23.384;2023-03-21T10:53:45;94271.59;;;19.15;31.74
56052;BME280;41919;42.648;23.384;2023-03-21T10:56:14;94217.56;;;18.91;31.51
56052;BME280;41919;42.648;23.384;2023-03-21T10:58:48;94266.03;;;19.37;31.54
56052;BME280;41919;42.648;23.384;2023-03-21T11:01:28;94260.97;;;19.46;30.97
56052;BME280;41919;42.648;23.384;2023-03-21T11:04:16;94250.38;;;19.56;30.72
56052;BME280;41919;42.648;23.384;2023-03-21T11:06:45;94252.50;;;19.65;30.39
56052;BME280;41919;42.648;23.384;2023-03-21T11:09:21;94205.88;;;19.43;30.32
56052;BME280;41919;42.648;23.384;2023-03-21T11:12:08;94227.03;;;19.69;30.48
56052;BME280;41919;42.648;23.384;2023-03-21T11:14:39;94219.63;;;19.66;30.86
56052;BME280;41919;42.648;23.384;2023-03-21T11:19:51;94193.16;;;19.40;30.75
56052;BME280;41919;42.648;23.384;2023-03-21T11:22:19;94183.34;;;19.40;30.83
56052;BME280;41919;42.648;23.384;2023-03-21T11:24:52;94230.22;;;19.71;31.17
56052;BME280;41919;42.648;23.384;2023-03-21T11:27:19;94221.22;;;19.67;31.01
56052;BME280;41919;42.648;23.384;2023-03-21T11:29:49;94169.31;;;19.45;30.23
56052;BME280;41919;42.648;23.384;2023-03-21T11:32:26;94222.19;;;20.02;30.24
56052;BME280;41919;42.648;23.384;2023-03-21T11:35:05;94222.75;;;19.98;29.78
56052;BME280;41919;42.648;23.384;2023-03-21T11:37:39;94216.13;;;19.96;30.01
56052;BME280;41919;42.648;23.384;2023-03-21T11:43:42;94216.94;;;19.86;29.71
56052;BME280;41919;42.648;23.384;2023-03-21T11:46:07;94209.53;;;19.83;29.42
56052;BME280;41919;42.648;23.384;2023-03-21T11:48:41;94189.16;;;19.58;29.77
56052;BME280;41919;42.648;23.384;2023-03-21T11:56:28;94101.03;;;18.96;29.52
56052;BME280;41919;42.648;23.384;2023-03-21T12:05:17;94131.22;;;19.10;31.92
56052;BME280;41919;42.648;23.384;2023-03-21T12:15:39;94173.22;;;19.84;30.11
56052;BME280;41919;42.648;23.384;2023-03-21T12:20:53;94170.03;;;19.76;29.40
56052;BME280;41919;42.648;23.384;2023-03-21T12:29:02;94166.56;;;19.86;29.11
56052;BME280;41919;42.648;23.384;2023-03-21T12:31:43;94172.13;;;19.90;28.73
56052;BME280;41919;42.648;23.384;2023-03-21T12:39:40;94147.63;;;19.28;29.73
56052;BME280;41919;42.648;23.384;2023-03-21T12:45:08;94155.59;;;19.12;29.40
56052;BME280;41919;42.648;23.384;2023-03-21T12:47:35;93963.22;;;18.05;29.57
56052;BME280;41919;42.648;23.384;2023-03-21T12:50:25;94084.09;;;19.12;29.28
56052;BME280;41919;42.648;23.384;2023-03-21T12:52:58;94075.13;;;18.93;29.66
56052;BME280;41919;42.648;23.384;2023-03-21T12:55:33;94148.16;;;19.19;29.90
56052;BME280;41919;42.648;23.384;2023-03-21T12:58:03;94074.56;;;18.39;30.82
56052;BME280;41919;42.648;23.384;2023-03-21T13:00:37;93974.06;;;17.93;30.69
56052;BME280;41919;42.648;23.384;2023-03-21T13:03:10;94137.84;;;19.08;30.54
56052;BME280;41919;42.648;23.384;2023-03-21T13:05:39;94061.88;;;18.83;30.20
56052;BME280;41919;42.648;23.384;2023-03-21T13:08:16;94034.34;;;18.68;30.25
56052;BME280;41919;42.648;23.384;2023-03-21T13:10:44;94093.88;;;19.07;30.31
56052;BME280;41919;42.648;23.384;2023-03-21T13:24:47;94091.53;;;18.90;30.58
56052;BME280;41919;42.648;23.384;2023-03-21T13:27:30;94112.72;;;18.95;31.22
56052;BME280;41919;42.648;23.384;2023-03-21T13:32:45;94017.44;;;18.02;31.88
56052;BME280;41919;42.648;23.384;2023-03-21T13:35:53;94092.84;;;18.51;31.79
56052;BME280;41919;42.648;23.384;2023-03-21T13:38:15;94106.31;;;18.50;32.94
56052;BME280;41919;42.648;23.384;2023-03-21T13:40:45;94029.06;;;18.07;32.64
56052;BME280;41919;42.648;23.384;2023-03-21T13:43:31;94090.44;;;18.65;33.02
56052;BME280;41919;42.648;23.384;2023-03-21T13:51:36;94035.41;;;18.16;34.13
56052;BME280;41919;42.648;23.384;2023-03-21T14:02:42;93976.31;;;17.38;36.00
56052;BME280;41919;42.648;23.384;2023-03-21T14:04:59;94035.28;;;17.59;36.00
56052;BME280;41919;42.648;23.384;2023-03-21T14:07:33;94036.03;;;17.50;35.87
56052;BME280;41919;42.648;23.384;2023-03-21T14:10:04;94038.91;;;17.43;36.63
56052;BME280;41919;42.648;23.384;2023-03-21T14:12:38;94085.28;;;17.76;36.87
56052;BME280;41919;42.648;23.384;2023-03-21T14:15:11;94085.53;;;17.75;37.27
56052;BME280;41919;42.648;23.384;2023-03-21T14:18:12;94015.84;;;17.13;37.18
56052;BME280;41919;42.648;23.384;2023-03-21T14:20:35;94055.22;;;17.24;37.90
56052;BME280;41919;42.648;23.384;2023-03-21T14:23:07;94012.53;;;16.90;37.59
56052;BME280;41919;42.648;23.384;2023-03-21T14:25:38;94024.03;;;16.74;37.78
56052;BME280;41919;42.648;23.384;2023-03-21T14:28:11;94067.47;;;16.93;38.04
56052;BME280;41919;42.648;23.384;2023-03-21T14:30:39;94087.88;;;17.08;37.92
56052;BME280;41919;42.648;23.384;2023-03-21T14:33:30;94081.47;;;16.94;38.13
56052;BME280;41919;42.648;23.384;2023-03-21T14:35:58;94089.25;;;16.78;38.76
56052;BME280;41919;42.648;23.384;2023-03-21T14:38:32;94073.25;;;16.58;38.78
56052;BME280;41919;42.648;23.384;2023-03-21T14:40:57;94020.41;;;16.10;38.55
56052;BME280;41919;42.648;23.384;2023-03-21T14:43:23;94020.66;;;16.08;39.29
56052;BME280;41919;42.648;23.384;2023-03-21T14:45:51;93956.97;;;15.62;39.30
56052;BME280;41919;42.648;23.384;2023-03-21T14:48:18;94064.63;;;16.30;39.52
56052;BME280;41919;42.648;23.384;2023-03-21T14:53:32;94003.63;;;15.89;39.86
56052;BME280;41919;42.648;23.384;2023-03-21T14:56:16;94077.81;;;16.35;39.98
56052;BME280;41919;42.648;23.384;2023-03-21T14:58:45;94072.41;;;16.20;40.21
56052;BME280;41919;42.648;23.384;2023-03-21T15:01:29;94080.88;;;16.22;40.21